Time,TemperatureF,DewpointF,PressureIn,WindDirection,WindDirectionDegrees,WindSpeedMPH,WindSpeedGustMPH,Humidity,HourlyPrecipIn,Conditions,Clouds,dailyrainin,SoftwareType,DateUTC
2013-01-31 00:00:00,36.5,36.0,29.40,WNW,287,1.0,1.0,98,0.00,,,0.37,Wunderground v.1.15,2013-01-31 05:00:00,
2013-01-31 00:10:00,37.7,37.2,29.39,NNE,20,1.0,1.0,98,0.00,,,0.00,Wunderground v.1.15,2013-01-31 05:10:00,
2013-01-31 00:15:00,37.4,36.9,29.37,NNE,20,0.0,2.0,98,0.00,,,0.00,Wunderground v.1.15,2013-01-31 05:15:00,
2013-01-31 00:20:00,37.3,36.8,29.36,NNE,20,0.0,0.0,98,0.00,,,0.00,Wunderground v.1.15,2013-01-31 05:20:00,
2013-01-31 00:25:00,37.5,37.0,29.37,NNE,20,0.0,0.0,98,0.00,,,0.01,Wunderground v.1.15,2013-01-31 05:25:00,
2013-01-31 00:30:00,37.7,37.2,29.36,NNE,20,0.0,0.0,98,0.00,,,0.01,Wunderground v.1.15,2013-01-31 05:30:00,
2013-01-31 00:35:00,37.7,37.2,29.37,NNE,19,0.0,0.0,98,0.05,,,0.02,Wunderground v.1.15,2013-01-31 05:35:00,
2013-01-31 00:45:00,38.4,37.9,29.34,NNE,20,0.0,0.0,98,0.12,,,0.06,Wunderground v.1.15,2013-01-31 05:45:00,
2013-01-31 00:50:00,38.5,38.0,29.33,NNE,20,1.0,1.0,98,0.08,,,0.07,Wunderground v.1.15,2013-01-31 05:50:00,
2013-01-31 00:55:00,38.0,37.5,29.33,NNE,20,1.0,1.0,98,0.08,,,0.07,Wunderground v.1.15,2013-01-31 05:55:00,
2013-01-31 01:00:00,38.2,37.7,29.32,NNE,20,0.0,0.0,98,0.05,,,0.07,Wunderground v.1.15,2013-01-31 06:00:00,
2013-01-31 01:05:00,38.5,38.0,29.32,NNE,19,0.0,0.0,98,0.00,,,0.07,Wunderground v.1.15,2013-01-31 06:05:00,
2013-01-31 01:15:00,38.4,37.9,29.30,NNE,20,0.0,0.0,98,0.08,,,0.09,Wunderground v.1.15,2013-01-31 06:15:00,
2013-01-31 01:25:00,38.9,38.4,29.28,NNE,19,0.0,1.0,98,0.61,,,0.15,Wunderground v.1.15,2013-01-31 06:25:00,
2013-01-31 01:30:00,39.6,39.1,29.28,NNE,19,0.0,0.0,98,0.17,,,0.16,Wunderground v.1.15,2013-01-31 06:30:00,
2013-01-31 01:35:00,40.3,39.8,29.28,NNE,19,0.0,0.0,98,0.19,,,0.17,Wunderground v.1.15,2013-01-31 06:35:00,
2013-01-31 01:45:00,41.6,41.3,29.27,NNE,20,0.0,0.0,99,0.15,,,0.20,Wunderground v.1.15,2013-01-31 06:45:00,
2013-01-31 01:50:00,41.7,41.2,29.26,NNE,20,0.0,0.0,98,0.08,,,0.20,Wunderground v.1.15,2013-01-31 06:50:00,
2013-01-31 02:00:00,40.0,39.5,29.25,NNE,19,0.0,0.0,98,0.06,,,0.21,Wunderground v.1.15,2013-01-31 07:00:00,
2013-01-31 02:05:00,40.0,39.5,29.25,NNE,20,0.0,0.0,98,0.36,,,0.23,Wunderground v.1.15,2013-01-31 07:05:00,
2013-01-31 02:15:00,40.0,39.5,29.24,NNE,20,0.0,0.0,98,0.10,,,0.26,Wunderground v.1.15,2013-01-31 07:15:00,
2013-01-31 02:20:00,39.8,39.3,29.23,NNE,20,0.0,0.0,98,0.23,,,0.28,Wunderground v.1.15,2013-01-31 07:20:00,
2013-01-31 02:30:00,40.1,39.6,29.22,NNE,19,0.0,0.0,98,0.11,,,0.30,Wunderground v.1.15,2013-01-31 07:30:00,
2013-01-31 02:35:00,40.1,39.6,29.21,NNE,19,0.0,0.0,98,0.08,,,0.30,Wunderground v.1.15,2013-01-31 07:35:00,
2013-01-31 02:40:00,40.1,39.6,29.20,NNE,20,0.0,0.0,98,0.39,,,0.33,Wunderground v.1.15,2013-01-31 07:40:00,
2013-01-31 02:50:00,40.0,39.5,29.19,NNE,20,0.0,0.0,98,0.12,,,0.36,Wunderground v.1.15,2013-01-31 07:50:00,
2013-01-31 02:55:00,39.8,39.3,29.19,NNE,20,0.0,1.0,98,0.11,,,0.36,Wunderground v.1.15,2013-01-31 07:55:00,
2013-01-31 03:05:00,40.0,39.5,29.16,NNE,20,0.0,0.0,98,0.20,,,0.40,Wunderground v.1.15,2013-01-31 08:05:00,
2013-01-31 03:15:00,40.3,39.8,29.15,NNE,20,0.0,0.0,98,0.05,,,0.40,Wunderground v.1.15,2013-01-31 08:15:00,
2013-01-31 03:20:00,40.6,40.1,29.14,NNW,346,0.0,0.0,98,0.00,,,0.40,Wunderground v.1.15,2013-01-31 08:20:00,
2013-01-31 03:25:00,41.1,40.6,29.14,NNW,346,0.0,0.0,98,0.00,,,0.41,Wunderground v.1.15,2013-01-31 08:25:00,
2013-01-31 03:30:00,42.9,42.6,29.14,NNW,346,0.0,0.0,99,0.00,,,0.41,Wunderground v.1.15,2013-01-31 08:30:00,
2013-01-31 03:40:00,44.3,44.0,29.13,NNW,346,0.0,0.0,99,0.09,,,0.43,Wunderground v.1.15,2013-01-31 08:40:00,
2013-01-31 03:45:00,45.0,44.7,29.12,North,360,0.0,0.0,99,0.09,,,0.43,Wunderground v.1.15,2013-01-31 08:45:00,
2013-01-31 03:55:00,44.9,44.6,29.10,North,360,0.0,0.0,99,0.04,,,0.44,Wunderground v.1.15,2013-01-31 08:55:00,
2013-01-31 04:00:00,44.2,43.9,29.09,North,360,0.0,0.0,99,0.04,,,0.44,Wunderground v.1.15,2013-01-31 09:00:00,
2013-01-31 04:05:00,44.7,44.4,29.08,North,360,0.0,0.0,99,0.04,,,0.44,Wunderground v.1.15,2013-01-31 09:05:00,
2013-01-31 04:15:00,50.2,49.9,29.05,SSE,166,1.0,3.0,99,0.00,,,0.45,Wunderground v.1.15,2013-01-31 09:15:00,
2013-01-31 04:25:00,52.8,52.5,29.04,SSE,157,3.0,3.0,99,0.00,,,0.45,Wunderground v.1.15,2013-01-31 09:25:00,
2013-01-31 04:30:00,52.9,52.6,29.03,South,177,2.0,2.0,99,0.00,,,0.45,Wunderground v.1.15,2013-01-31 09:30:00,
2013-01-31 04:35:00,53.0,52.7,29.02,South,180,2.0,2.0,99,0.00,,,0.46,Wunderground v.1.15,2013-01-31 09:35:00,
2013-01-31 04:45:00,53.2,52.9,29.02,SSW,194,2.0,2.0,99,0.00,,,0.46,Wunderground v.1.15,2013-01-31 09:45:00,
2013-01-31 04:50:00,53.5,53.2,29.00,SSE,157,2.0,5.0,99,0.00,,,0.46,Wunderground v.1.15,2013-01-31 09:50:00,
2013-01-31 05:00:00,53.6,53.3,29.00,SSW,192,3.0,3.0,99,0.00,,,0.47,Wunderground v.1.15,2013-01-31 10:00:00,
2013-01-31 05:05:00,53.9,53.6,28.99,South,178,3.0,3.0,99,0.08,,,0.48,Wunderground v.1.15,2013-01-31 10:05:00,
2013-01-31 05:15:00,54.2,53.9,28.98,SSW,200,4.0,4.0,99,0.13,,,0.49,Wunderground v.1.15,2013-01-31 10:15:00,
2013-01-31 05:20:00,54.4,54.1,28.97,SSW,196,5.0,6.0,99,0.13,,,0.51,Wunderground v.1.15,2013-01-31 10:20:00,
2013-01-31 05:25:00,54.4,54.1,28.96,SSW,198,5.0,7.0,99,0.24,,,0.53,Wunderground v.1.15,2013-01-31 10:25:00,
2013-01-31 05:35:00,54.7,54.4,28.94,South,178,5.0,5.0,99,0.36,,,0.59,Wunderground v.1.15,2013-01-31 10:35:00,
2013-01-31 05:40:00,54.8,54.5,28.94,SSW,200,5.0,5.0,99,0.58,,,0.62,Wunderground v.1.15,2013-01-31 10:40:00,
2013-01-31 05:50:00,54.2,53.9,28.93,South,186,3.0,6.0,99,0.15,,,0.66,Wunderground v.1.15,2013-01-31 10:50:00,
2013-01-31 05:55:00,54.8,54.5,28.94,South,173,5.0,15.0,99,0.13,,,0.67,Wunderground v.1.15,2013-01-31 10:55:00,
2013-01-31 06:00:00,54.9,54.6,28.94,SSW,200,6.0,6.0,99,0.30,,,0.69,Wunderground v.1.15,2013-01-31 11:00:00,
2013-01-31 06:05:00,54.9,54.6,28.94,WNW,291,4.0,6.0,99,0.51,,,0.73,Wunderground v.1.15,2013-01-31 11:05:00,
2013-01-31 06:15:00,54.2,53.9,28.95,South,178,3.0,6.0,99,0.41,,,0.87,Wunderground v.1.15,2013-01-31 11:15:00,
2013-01-31 06:25:00,54.8,54.5,28.94,SSW,203,4.0,5.0,99,0.12,,,0.88,Wunderground v.1.15,2013-01-31 11:25:00,
2013-01-31 06:30:00,54.5,54.2,28.94,SSW,204,2.0,2.0,99,0.08,,,0.88,Wunderground v.1.15,2013-01-31 11:30:00,
2013-01-31 06:40:00,53.8,53.5,28.93,SSW,205,0.0,0.0,99,0.04,,,0.89,Wunderground v.1.15,2013-01-31 11:40:00,
2013-01-31 06:45:00,53.6,53.3,28.95,SSW,198,1.0,2.0,99,0.04,,,0.89,Wunderground v.1.15,2013-01-31 11:45:00,
2013-01-31 06:50:00,53.9,53.6,28.96,WSW,238,3.0,7.0,99,0.05,,,0.90,Wunderground v.1.15,2013-01-31 11:50:00,
2013-01-31 07:00:00,54.2,53.9,28.96,SSW,205,6.0,7.0,99,0.10,,,0.92,Wunderground v.1.15,2013-01-31 12:00:00,
2013-01-31 07:05:00,53.7,53.4,28.95,South,183,5.0,7.0,99,0.13,,,0.93,Wunderground v.1.15,2013-01-31 12:05:00,
2013-01-31 07:15:00,53.8,53.5,28.91,South,169,3.0,4.0,99,0.05,,,0.93,Wunderground v.1.15,2013-01-31 12:15:00,
2013-01-31 07:20:00,53.9,53.3,28.91,SW,217,2.0,9.0,98,0.04,,,0.93,Wunderground v.1.15,2013-01-31 12:20:00,
2013-01-31 07:30:00,53.9,53.1,28.90,South,185,3.0,3.0,97,0.00,,,0.93,Wunderground v.1.15,2013-01-31 12:30:00,
2013-01-31 07:35:00,53.8,53.0,28.89,South,188,3.0,3.0,97,0.00,,,0.93,Wunderground v.1.15,2013-01-31 12:35:00,
2013-01-31 07:45:00,53.9,53.1,28.88,South,184,4.0,5.0,97,0.00,,,0.94,Wunderground v.1.15,2013-01-31 12:45:00,
2013-01-31 07:50:00,54.1,53.3,28.87,South,172,4.0,4.0,97,0.00,,,0.94,Wunderground v.1.15,2013-01-31 12:50:00,
2013-01-31 07:55:00,54.1,53.3,28.87,South,190,4.0,4.0,97,0.00,,,0.94,Wunderground v.1.15,2013-01-31 12:55:00,
2013-01-31 08:05:00,54.0,52.9,28.88,South,184,5.0,5.0,96,0.00,,,0.94,Wunderground v.1.15,2013-01-31 13:05:00,
2013-01-31 08:15:00,54.0,52.6,28.87,SSW,208,5.0,6.0,95,0.00,,,0.94,Wunderground v.1.15,2013-01-31 13:15:00,
2013-01-31 08:20:00,53.9,52.5,28.87,SSW,201,4.0,4.0,95,0.00,,,0.94,Wunderground v.1.15,2013-01-31 13:20:00,
2013-01-31 08:25:00,53.7,52.3,28.87,SW,217,3.0,11.0,95,0.00,,,0.94,Wunderground v.1.15,2013-01-31 13:25:00,
2013-01-31 08:35:00,53.9,52.5,28.85,SSW,213,4.0,4.0,95,0.00,,,0.94,Wunderground v.1.15,2013-01-31 13:35:00,
2013-01-31 08:40:00,54.0,52.6,28.86,SW,216,4.0,4.0,95,0.00,,,0.94,Wunderground v.1.15,2013-01-31 13:40:00,
2013-01-31 08:45:00,53.0,50.4,28.93,SSE,151,4.0,4.0,91,0.00,,,0.95,Wunderground v.1.15,2013-01-31 13:45:00,
2013-01-31 08:55:00,48.6,43.4,28.92,NW,307,6.0,7.0,82,0.07,,,0.96,Wunderground v.1.15,2013-01-31 13:55:00,
2013-01-31 09:00:00,47.4,42.2,28.93,NW,317,5.0,6.0,82,0.05,,,0.96,Wunderground v.1.15,2013-01-31 14:00:00,
2013-01-31 09:05:00,46.7,41.5,28.93,NW,315,8.0,8.0,82,0.00,,,0.96,Wunderground v.1.15,2013-01-31 14:05:00,
2013-01-31 10:54:00,42.8,36.1,29.03,NE,48,5.0,11.0,77,0.00,,,0.97,Wunderground v.1.15,2013-01-31 15:54:00,
2013-01-31 11:00:00,43.1,36.0,29.03,North,355,6.0,6.0,76,0.00,,,0.97,Wunderground v.1.15,2013-01-31 16:00:00,
2013-01-31 11:05:00,43.3,35.9,29.04,West,261,6.0,11.0,75,0.00,,,0.97,Wunderground v.1.15,2013-01-31 16:05:00,
2013-01-31 11:15:00,44.2,35.7,29.04,East,81,5.0,6.0,72,0.00,,,0.97,Wunderground v.1.15,2013-01-31 16:15:00,
2013-01-31 11:25:00,43.9,34.0,29.05,NNE,15,4.0,4.0,68,0.00,,,0.97,Wunderground v.1.15,2013-01-31 16:25:00,
2013-01-31 11:30:00,43.4,34.3,29.06,WNW,284,5.0,5.0,70,0.00,,,0.97,Wunderground v.1.15,2013-01-31 16:30:00,
2013-01-31 11:40:00,43.0,32.0,29.08,WNW,292,6.0,6.0,65,0.00,,,0.97,Wunderground v.1.15,2013-01-31 16:40:00,
2013-01-31 11:50:00,43.2,31.4,29.09,SW,217,6.0,6.0,63,0.00,,,0.97,Wunderground v.1.15,2013-01-31 16:50:00,
2013-01-31 11:55:00,42.7,29.8,29.10,South,181,6.0,6.0,60,0.00,,,0.97,Wunderground v.1.15,2013-01-31 16:55:00,
2013-01-31 12:00:00,41.9,28.6,29.10,NW,315,6.0,11.0,59,0.00,,,0.97,Wunderground v.1.15,2013-01-31 17:00:00,
2013-01-31 12:05:00,41.6,27.9,29.09,WSW,251,7.0,11.0,58,0.00,,,0.97,Wunderground v.1.15,2013-01-31 17:05:00,
2013-01-31 12:15:00,41.5,28.6,29.09,SSW,212,6.0,7.0,60,0.00,,,0.97,Wunderground v.1.15,2013-01-31 17:15:00,
2013-01-31 12:20:00,41.4,28.1,29.11,West,263,7.0,7.0,59,0.00,,,0.97,Wunderground v.1.15,2013-01-31 17:20:00,
2013-01-31 12:25:00,41.4,27.7,29.11,East,94,7.0,7.0,58,0.00,,,0.97,Wunderground v.1.15,2013-01-31 17:25:00,
2013-01-31 12:35:00,41.6,27.9,29.11,NW,311,5.0,16.0,58,0.00,,,0.97,Wunderground v.1.15,2013-01-31 17:35:00,
2013-01-31 12:40:00,41.3,25.9,29.11,South,182,7.0,7.0,54,0.00,,,0.97,Wunderground v.1.15,2013-01-31 17:40:00,
2013-01-31 12:45:00,41.1,25.7,29.11,SW,229,8.0,11.0,54,0.00,,,0.97,Wunderground v.1.15,2013-01-31 17:45:00,
2013-01-31 12:55:00,40.9,26.4,29.12,SSW,208,6.0,7.0,56,0.00,,,0.97,Wunderground v.1.15,2013-01-31 17:55:00,
2013-01-31 13:00:00,40.6,25.7,29.13,ENE,59,6.0,10.0,55,0.00,,,0.97,Wunderground v.1.15,2013-01-31 18:00:00,
2013-01-31 13:05:00,40.2,25.3,29.12,SSE,161,7.0,10.0,55,0.00,,,0.97,Wunderground v.1.15,2013-01-31 18:05:00,
2013-01-31 13:15:00,40.1,25.2,29.13,SSE,167,6.0,6.0,55,0.00,,,0.97,Wunderground v.1.15,2013-01-31 18:15:00,
2013-01-31 13:25:00,40.6,25.2,29.14,SE,128,6.0,9.0,54,0.00,,,0.97,Wunderground v.1.15,2013-01-31 18:25:00,
2013-01-31 13:35:00,40.4,25.5,29.15,ESE,103,6.0,7.0,55,0.00,,,0.97,Wunderground v.1.15,2013-01-31 18:35:00,
2013-01-31 13:40:00,40.6,24.8,29.15,West,274,5.0,5.0,53,0.00,,,0.97,Wunderground v.1.15,2013-01-31 18:40:00,
2013-01-31 13:50:00,39.8,24.5,29.16,South,179,7.0,7.0,54,0.00,,,0.97,Wunderground v.1.15,2013-01-31 18:50:00,
2013-01-31 13:55:00,39.7,23.5,29.17,South,176,5.0,9.0,52,0.00,,,0.97,Wunderground v.1.15,2013-01-31 18:55:00,
2013-01-31 14:00:00,39.1,23.4,29.18,NW,307,5.0,5.0,53,0.00,,,0.97,Wunderground v.1.15,2013-01-31 19:00:00,
2013-01-31 14:05:00,39.0,23.7,29.17,SSW,194,4.0,5.0,54,0.00,,,0.97,Wunderground v.1.15,2013-01-31 19:05:00,
2013-01-31 14:15:00,38.5,20.5,29.19,SW,219,8.0,8.0,48,0.00,,,0.97,Wunderground v.1.15,2013-01-31 19:15:00,
2013-01-31 14:20:00,38.2,21.2,29.19,SSE,155,8.0,8.0,50,0.00,,,0.97,Wunderground v.1.15,2013-01-31 19:20:00,
2013-01-31 14:25:00,37.9,20.9,29.20,NW,322,6.0,8.0,50,0.00,,,0.97,Wunderground v.1.15,2013-01-31 19:25:00,
2013-01-31 14:30:00,38.2,21.6,29.20,SSW,196,5.0,5.0,51,0.00,,,0.97,Wunderground v.1.15,2013-01-31 19:30:00,
2013-01-31 14:40:00,38.4,21.4,29.21,South,172,6.0,6.0,50,0.00,,,0.97,Wunderground v.1.15,2013-01-31 19:40:00,
2013-01-31 14:45:00,38.8,21.3,29.21,SSE,151,5.0,6.0,49,0.00,,,0.97,Wunderground v.1.15,2013-01-31 19:45:00,
2013-01-31 14:55:00,38.3,20.3,29.23,South,191,5.0,8.0,48,0.00,,,0.97,Wunderground v.1.15,2013-01-31 19:55:00,
2013-01-31 15:00:00,37.8,20.8,29.24,East,95,6.0,6.0,50,0.00,,,0.97,Wunderground v.1.15,2013-01-31 20:00:00,
2013-01-31 15:05:00,37.2,20.2,29.24,NNW,337,7.0,7.0,50,0.00,,,0.97,Wunderground v.1.15,2013-01-31 20:05:00,
2013-01-31 15:15:00,37.0,21.0,29.24,North,355,4.0,15.0,52,0.00,,,0.97,Wunderground v.1.15,2013-01-31 20:15:00,
2013-01-31 15:25:00,36.4,20.4,29.25,NE,54,6.0,6.0,52,0.00,,,0.97,Wunderground v.1.15,2013-01-31 20:25:00,
2013-01-31 15:30:00,36.2,19.8,29.25,WSW,240,7.0,7.0,51,0.00,,,0.97,Wunderground v.1.15,2013-01-31 20:30:00,
2013-01-31 15:40:00,36.1,19.2,29.26,SW,231,4.0,4.0,50,0.00,,,0.97,Wunderground v.1.15,2013-01-31 20:40:00,
2013-01-31 15:45:00,35.6,19.2,29.27,SSW,205,5.0,6.0,51,0.00,,,0.97,Wunderground v.1.15,2013-01-31 20:45:00,
2013-01-31 15:55:00,35.1,18.8,29.27,SE,126,5.0,7.0,51,0.00,,,0.97,Wunderground v.1.15,2013-01-31 20:55:00,
2013-01-31 16:00:00,35.0,18.7,29.28,South,186,5.0,7.0,51,0.00,,,0.97,Wunderground v.1.15,2013-01-31 21:00:00,
2013-01-31 16:05:00,34.8,18.5,29.28,SSW,196,5.0,7.0,51,0.00,,,0.97,Wunderground v.1.15,2013-01-31 21:05:00,
2013-01-31 16:15:00,34.6,18.8,29.29,SSE,168,4.0,12.0,52,0.00,,,0.97,Wunderground v.1.15,2013-01-31 21:15:00,
2013-01-31 16:20:00,34.4,18.1,29.29,WNW,302,4.0,16.0,51,0.00,,,0.97,Wunderground v.1.15,2013-01-31 21:20:00,
2013-01-31 16:25:00,34.4,17.2,29.29,SSE,164,6.0,16.0,49,0.00,,,0.97,Wunderground v.1.15,2013-01-31 21:25:00,
2013-01-31 16:30:00,34.4,17.7,29.29,WNW,284,6.0,10.0,50,0.00,,,0.97,Wunderground v.1.15,2013-01-31 21:30:00,
2013-01-31 16:40:00,34.4,16.7,29.30,NW,318,7.0,7.0,48,0.00,,,0.97,Wunderground v.1.15,2013-01-31 21:40:00,
2013-01-31 16:50:00,34.1,17.4,29.30,SW,215,4.0,5.0,50,0.00,,,0.97,Wunderground v.1.15,2013-01-31 21:50:00,
2013-01-31 16:55:00,34.0,16.3,29.31,NW,322,5.0,9.0,48,0.00,,,0.97,Wunderground v.1.15,2013-01-31 21:55:00,
2013-01-31 17:05:00,33.9,16.3,29.31,SE,141,4.0,6.0,48,0.00,,,0.97,Wunderground v.1.15,2013-01-31 22:05:00,
2013-01-31 17:15:00,33.7,15.6,29.31,East,101,5.0,5.0,47,0.00,,,0.97,Wunderground v.1.15,2013-01-31 22:15:00,
2013-01-31 17:20:00,33.6,16.5,29.32,SSE,167,4.0,10.0,49,0.00,,,0.97,Wunderground v.1.15,2013-01-31 22:20:00,
2013-01-31 17:25:00,33.4,15.8,29.31,WNW,285,2.0,10.0,48,0.00,,,0.97,Wunderground v.1.15,2013-01-31 22:25:00,
2013-01-31 17:35:00,33.3,16.2,29.32,NNE,28,6.0,6.0,49,0.00,,,0.97,Wunderground v.1.15,2013-01-31 22:35:00,
2013-01-31 17:40:00,33.2,16.1,29.33,NNW,329,7.0,12.0,49,0.00,,,0.97,Wunderground v.1.15,2013-01-31 22:40:00,
2013-01-31 17:45:00,33.0,16.8,29.33,WSW,237,7.0,12.0,51,0.00,,,0.97,Wunderground v.1.15,2013-01-31 22:45:00,
2013-01-31 17:55:00,32.7,14.7,29.34,WNW,298,6.0,7.0,47,0.00,,,0.97,Wunderground v.1.15,2013-01-31 22:55:00,
2013-01-31 18:05:00,32.3,14.3,29.34,NW,311,6.0,7.0,47,0.00,,,0.97,Wunderground v.1.15,2013-01-31 23:05:00,
2013-01-31 18:15:00,32.0,14.0,29.35,SW,215,5.0,11.0,47,0.00,,,0.97,Wunderground v.1.15,2013-01-31 23:15:00,
2013-01-31 18:20:00,31.9,13.9,29.35,NNW,331,3.0,3.0,47,0.00,,,0.97,Wunderground v.1.15,2013-01-31 23:20:00,
2013-01-31 18:25:00,31.8,14.3,29.36,NNE,17,4.0,7.0,48,0.00,,,0.97,Wunderground v.1.15,2013-01-31 23:25:00,
2013-01-31 18:35:00,31.8,13.8,29.36,ESE,116,5.0,7.0,47,0.00,,,0.97,Wunderground v.1.15,2013-01-31 23:35:00,
2013-01-31 18:40:00,31.6,13.7,29.36,NE,36,3.0,3.0,47,0.00,,,0.97,Wunderground v.1.15,2013-01-31 23:40:00,
2013-01-31 18:50:00,31.5,14.0,29.38,NE,51,4.0,4.0,48,0.00,,,0.97,Wunderground v.1.15,2013-01-31 23:50:00,
2013-01-31 18:55:00,31.4,13.9,29.38,NW,306,5.0,16.0,48,0.00,,,0.97,Wunderground v.1.15,2013-01-31 23:55:00,
2013-01-31 19:05:00,31.4,13.0,29.38,SE,124,7.0,7.0,46,0.00,,,0.97,Wunderground v.1.15,2013-02-01 00:05:00,
2013-01-31 19:15:00,31.2,12.8,29.39,East,97,7.0,7.0,46,0.00,,,0.97,Wunderground v.1.15,2013-02-01 00:15:00,
2013-01-31 19:20:00,31.2,13.3,29.38,WNW,282,6.0,15.0,47,0.00,,,0.97,Wunderground v.1.15,2013-02-01 00:20:00,
2013-01-31 19:25:00,31.3,13.4,29.39,NE,49,6.0,15.0,47,0.00,,,0.97,Wunderground v.1.15,2013-02-01 00:25:00,
2013-01-31 19:35:00,31.2,13.8,29.40,SE,125,5.0,9.0,48,0.00,,,0.97,Wunderground v.1.15,2013-02-01 00:35:00,
2013-01-31 19:40:00,31.1,14.1,29.40,SSE,164,4.0,6.0,49,0.00,,,0.97,Wunderground v.1.15,2013-02-01 00:40:00,
2013-01-31 19:50:00,30.8,14.3,29.40,SW,215,4.0,7.0,50,0.00,,,0.97,Wunderground v.1.15,2013-02-01 00:50:00,
2013-01-31 19:55:00,30.7,14.7,29.41,SSE,151,4.0,7.0,51,0.00,,,0.97,Wunderground v.1.15,2013-02-01 00:55:00,
2013-01-31 20:05:00,30.7,14.2,29.41,South,175,6.0,11.0,50,0.00,,,0.97,Wunderground v.1.15,2013-02-01 01:05:00,
2013-01-31 20:15:00,30.5,14.5,29.41,South,171,4.0,6.0,51,0.00,,,0.97,Wunderground v.1.15,2013-02-01 01:15:00,
2013-01-31 20:20:00,30.3,14.3,29.41,SW,223,4.0,14.0,51,0.00,,,0.97,Wunderground v.1.15,2013-02-01 01:20:00,
2013-01-31 20:25:00,30.2,13.8,29.41,SE,126,5.0,14.0,50,0.00,,,0.97,Wunderground v.1.15,2013-02-01 01:25:00,
2013-01-31 20:35:00,30.1,12.7,29.41,SSE,158,6.0,10.0,48,0.00,,,0.97,Wunderground v.1.15,2013-02-01 01:35:00,
2013-01-31 20:45:00,29.8,12.5,29.42,SSW,202,5.0,5.0,48,0.00,,,0.97,Wunderground v.1.15,2013-02-01 01:45:00,
2013-01-31 20:50:00,29.7,11.9,29.42,South,186,5.0,5.0,47,0.00,,,0.97,Wunderground v.1.15,2013-02-01 01:50:00,
2013-01-31 21:00:00,29.7,12.4,29.42,North,11,7.0,7.0,48,0.00,,,0.97,Wunderground v.1.15,2013-02-01 02:00:00,
2013-01-31 21:05:00,29.5,12.2,29.42,NE,42,5.0,7.0,48,0.00,,,0.97,Wunderground v.1.15,2013-02-01 02:05:00,
2013-01-31 21:15:00,29.4,12.1,29.43,SE,140,6.0,9.0,48,0.00,,,0.97,Wunderground v.1.15,2013-02-01 02:15:00,
2013-01-31 21:20:00,29.4,11.6,29.43,SSW,205,6.0,11.0,47,0.00,,,0.97,Wunderground v.1.15,2013-02-01 02:20:00,
2013-01-31 21:30:00,29.2,11.9,29.44,West,261,5.0,5.0,48,0.00,,,0.97,Wunderground v.1.15,2013-02-01 02:30:00,
2013-01-31 21:40:00,29.1,11.4,29.44,WNW,286,4.0,4.0,47,0.00,,,0.97,Wunderground v.1.15,2013-02-01 02:40:00,
2013-01-31 21:45:00,29.1,11.4,29.45,SSW,196,3.0,4.0,47,0.00,,,0.97,Wunderground v.1.15,2013-02-01 02:45:00,
2013-01-31 21:55:00,29.0,11.3,29.45,NNE,14,5.0,5.0,47,0.00,,,0.97,Wunderground v.1.15,2013-02-01 02:55:00,
2013-01-31 22:00:00,29.0,11.3,29.45,SW,226,4.0,4.0,47,0.00,,,0.97,Wunderground v.1.15,2013-02-01 03:00:00,
2013-01-31 22:05:00,28.8,11.6,29.46,SW,229,3.0,6.0,48,0.00,,,0.97,Wunderground v.1.15,2013-02-01 03:05:00,
2013-01-31 22:15:00,28.8,12.0,29.46,South,178,4.0,6.0,49,0.00,,,0.97,Wunderground v.1.15,2013-02-01 03:15:00,
2013-01-31 22:25:00,28.8,11.1,29.47,North,9,6.0,6.0,47,0.00,,,0.97,Wunderground v.1.15,2013-02-01 03:25:00,
2013-01-31 22:30:00,28.7,11.0,29.46,SW,230,5.0,5.0,47,0.00,,,0.97,Wunderground v.1.15,2013-02-01 03:30:00,
2013-01-31 22:40:00,28.8,11.1,29.46,NE,53,6.0,6.0,47,0.00,,,0.97,Wunderground v.1.15,2013-02-01 03:40:00,
2013-01-31 22:45:00,28.8,11.1,29.46,NNW,334,6.0,6.0,47,0.00,,,0.97,Wunderground v.1.15,2013-02-01 03:45:00,
2013-01-31 22:55:00,28.5,10.8,29.47,WNW,292,2.0,8.0,47,0.00,,,0.97,Wunderground v.1.15,2013-02-01 03:55:00,
2013-01-31 23:00:00,28.4,10.7,29.47,NW,304,2.0,2.0,47,0.00,,,0.97,Wunderground v.1.15,2013-02-01 04:00:00,
2013-01-31 23:05:00,28.4,10.7,29.47,NE,53,2.0,2.0,47,0.00,,,0.97,Wunderground v.1.15,2013-02-01 04:05:00,
2013-01-31 23:15:00,28.3,10.6,29.47,North,9,2.0,5.0,47,0.00,,,0.97,Wunderground v.1.15,2013-02-01 04:15:00,
2013-01-31 23:25:00,28.3,11.1,29.48,NNW,330,3.0,3.0,48,0.00,,,0.97,Wunderground v.1.15,2013-02-01 04:25:00,
2013-01-31 23:30:00,28.3,11.1,29.48,WSW,238,2.0,2.0,48,0.00,,,0.97,Wunderground v.1.15,2013-02-01 04:30:00,
2013-01-31 23:40:00,28.3,10.6,29.48,West,264,3.0,3.0,47,0.00,,,0.97,Wunderground v.1.15,2013-02-01 04:40:00,
2013-01-31 23:45:00,28.2,10.5,29.49,North,355,3.0,3.0,47,0.00,,,0.97,Wunderground v.1.15,2013-02-01 04:45:00,
2013-01-31 23:55:00,28.2,10.5,29.49,WNW,302,3.0,3.0,47,0.00,,,0.97,Wunderground v.1.15,2013-02-01 04:55:00,